Norwegian Dream — C6LG5 — position and weather

sailwx.info

Track history (hours):
 
Tides and Currents Weather Stations Pressure Air Temp Water Temp Dewpoint Dewpoint Depression Visibility Wind Speed Wind Dir Waves Ship Positions

Norwegian Dream

Operator: Norwegian Cruise Line

Last reported at 2017-Apr-29 12:51 UTC. Time now 2017-Apr-29 13:29 UTC.
Position N 01°45' E 102°30'.

Type: Ship. MMSI: 308272000.

Date/timePositionNaut miles runAvg speedWind from/ knotsBaromVisibWave heightAir tempDewpointWater temp
2017-Apr-29 12:51N 01°45' E 102°30'12 1.1
2017-Apr-29 02:00N 01°48' E 102°18'1010.5 290 / 61012.0 5.4 26.024.630.0
2017-Apr-29 01:01N 01°51' E 102°28'2 5.1
2017-Apr-29 00:38N 01°50' E 102°29'1 5.4
2017-Apr-29 00:29N 01°50' E 102°30'3 5.5
2017-Apr-28 23:58N 01°48' E 102°33'5 6.2
2017-Apr-28 23:08N 01°46' E 102°37'1 6.4
2017-Apr-28 22:57N 01°46' E 102°38'3 7.2
2017-Apr-28 22:30N 01°44' E 102°41'4 7.4
2017-Apr-28 22:00N 01°42' E 102°45'4 7.3
2017-Apr-28 21:30N 01°41' E 102°48'56 7.4
2017-Apr-28 13:58N 01°12' E 103°35'511.1
2017-Apr-28 13:30N 01°11' E 103°40'510.0
2017-Apr-28 13:00N 01°08' E 103°45'510.8
2017-Apr-28 12:30N 01°12' E 103°48'3 6.4
2017-Apr-28 12:00N 01°16' E 103°48'1 0.4
2017-Apr-28 09:15N 01°16' E 103°49'0 0.0
2017-Apr-28 08:45N 01°16' E 103°49'0 0.0
2017-Apr-28 08:27N 01°16' E 103°49'0 0.0
2017-Apr-28 07:42N 01°16' E 103°49'0 0.0
2017-Apr-28 07:21N 01°16' E 103°49'0 0.0
2017-Apr-28 06:57N 01°16' E 103°49'0 0.0
2017-Apr-28 06:30N 01°16' E 103°49'0 0.0
2017-Apr-28 05:57N 01°16' E 103°49'0 0.0
2017-Apr-28 05:15N 01°16' E 103°49'0 0.0
2017-Apr-28 04:51N 01°16' E 103°49'0 0.0
2017-Apr-28 03:26N 01°16' E 103°49'1 1.9
2017-Apr-28 03:00N 01°16' E 103°48'4 7.1
2017-Apr-28 02:29N 01°12' E 103°49'612.6
2017-Apr-28 02:00N 01°06' E 103°48'3442.0 190 / 41012.0 5.4 28.026.730.0
2017-Apr-28 01:59N 01°08' E 103°46'511.0
2017-Apr-28 01:30N 01°05' E 103°42'5 8.3
2017-Apr-28 00:56N 01°04' E 103°37'7 7.5
2017-Apr-27 23:57N 01°07' E 103°31'4 7.4
2017-Apr-27 23:26N 01°09' E 103°28'4 7.7
2017-Apr-27 22:58N 01°11' E 103°24'14529.1
2017-Apr-27 18:00N 01°30' E 105°48'20355.0 220 / 101013.0 5.4 25.022.929.0
2017-Apr-27 14:18N 01°47' E 102°25'24 7.1
2017-Apr-27 10:51N 02°09' E 102°15'1 1.9
2017-Apr-27 10:30N 02°10' E 102°15'1 1.2
2017-Apr-27 09:49N 02°10' E 102°14'4 0.6
2017-Apr-27 02:00N 02°06' E 102°12'26 7.9 270 / 81012.010.8 27.025.730.0
2017-Apr-26 22:43N 01°50' E 102°33'314.3
2017-Apr-26 22:30N 01°49' E 102°35'814.5
2017-Apr-26 21:56N 01°44' E 102°42'5814.7
2017-Apr-26 18:00N 01°12' E 103°30'314.6 200 / 311012.0 5.4 25.022.228.0
2017-Apr-26 17:49N 01°12' E 103°33'412.8
2017-Apr-26 17:29N 01°11' E 103°37'612.3
2017-Apr-26 17:00N 01°09' E 103°42'612.5
2017-Apr-26 16:31N 01°11' E 103°48'4 8.7
2017-Apr-26 16:00N 01°15' E 103°48'2 0.3
2017-Apr-26 10:17N 01°16' E 103°49'0 0.7
2017-Apr-26 10:00N 01°16' E 103°49'3 6.5
2017-Apr-26 09:30N 01°15' E 103°46'612.8
2017-Apr-26 09:00N 01°13' E 103°40'510.7
2017-Apr-26 08:30N 01°12' E 103°35'815.0
2017-Apr-26 08:00N 01°06' E 103°30'7113.1 270 / 61012.0 5.4 28.026.730.0
2017-Apr-26 02:37N 01°46' E 102°32'112.5
2017-Apr-26 02:30N 01°47' E 102°30'812.6
2017-Apr-26 01:54N 01°50' E 102°24'13517.1
2017-Apr-25 18:00N 03°12' E 100°36'154 6.4 030 / 141012.0 5.4 28.024.028.0
2017-Apr-24 18:00N 05°42' E 100°00'27 2.8 060 / 81012.0 5.4 28.023.028.0
2017-Apr-24 08:11N 05°25' E 100°21'1 5.8
2017-Apr-24 07:57N 05°26' E 100°21'21 7.0
2017-Apr-24 05:00N 05°12' E 100°06'18016.3 090 / 81012.010.8 30.027.430.0
2017-Apr-23 18:00N 02°30' E 101°24'7916.1 010 / 121012.0 29.025.028.0
2017-Apr-23 13:07N 01°49' E 102°31'315.8
2017-Apr-23 12:56N 01°48' E 102°34'615.2
2017-Apr-23 12:31N 01°44' E 102°39'815.1
2017-Apr-23 12:00N 01°41' E 102°46'815.1
2017-Apr-23 11:30N 01°37' E 102°53'815.1
2017-Apr-23 11:00N 01°33' E 102°59'4215.9
2017-Apr-23 08:20N 01°12' E 103°35'512.9
2017-Apr-23 07:58N 01°13' E 103°40'613.2
2017-Apr-23 07:30N 01°16' E 103°45'4 7.7
2017-Apr-23 07:00N 01°16' E 103°49'0 0.1
2017-Apr-23 06:25N 01°16' E 103°49'0 0.0
2017-Apr-23 05:31N 01°16' E 103°49'0 0.0
2017-Apr-23 05:19N 01°16' E 103°49'0 0.0
2017-Apr-23 04:58N 01°16' E 103°49'0 0.0
2017-Apr-23 04:28N 01°16' E 103°49'0 0.0
2017-Apr-23 03:52N 01°16' E 103°49'0 0.0
2017-Apr-23 03:30N 01°16' E 103°49'0 0.0
2017-Apr-23 02:57N 01°16' E 103°49'0 0.0
2017-Apr-23 02:30N 01°16' E 103°49'0 0.0
2017-Apr-23 02:00N 01°16' E 103°49'0 0.0
2017-Apr-23 01:30N 01°16' E 103°49'2 4.1
2017-Apr-23 01:00N 01°15' E 103°47'4 8.9
2017-Apr-23 00:30N 01°11' E 103°50'5 9.3
2017-Apr-23 00:01N 01°08' E 103°46'510.2
2017-Apr-22 23:30N 01°05' E 103°43'5 9.1
2017-Apr-22 23:00N 01°03' E 103°38'4 7.5
2017-Apr-22 22:29N 01°05' E 103°35'4 7.4
2017-Apr-22 21:59N 01°07' E 103°32'3 7.3
2017-Apr-22 21:31N 01°08' E 103°29'5 7.0
2017-Apr-22 20:47N 01°11' E 103°25'4 6.9
2017-Apr-22 20:13N 01°13' E 103°21'16 7.2
2017-Apr-22 18:00N 01°18' E 103°06'13 8.3 010 / 101012.0 5.4 28.026.028.0
2017-Apr-22 16:28N 01°29' E 102°60'4 7.7
2017-Apr-22 16:00N 01°31' E 102°57'4 7.7
2017-Apr-22 15:27N 01°33' E 102°53'24 7.8
2017-Apr-22 12:20N 01°44' E 102°32'10 8.4
2017-Apr-22 11:09N 01°48' E 102°22'12 2.0
2017-Apr-22 05:00N 01°54' E 102°12'62 5.6 280 / 101014.0 5.4 28.026.729.0
2017-Apr-21 18:00N 01°24' E 103°06'33 8.1 240 / 141011.0 5.4 29.024.129.0
2017-Apr-21 13:55N 01°11' E 103°36'4 8.7
2017-Apr-21 13:30N 01°11' E 103°40'510.5
2017-Apr-21 13:01N 01°08' E 103°45'611.1
2017-Apr-21 12:30N 01°12' E 103°49'4 7.1
2017-Apr-21 12:01N 01°16' E 103°48'1 0.2
2017-Apr-21 07:45N 01°16' E 103°49'0 0.0
2017-Apr-21 07:27N 01°16' E 103°49'0 0.0
2017-Apr-21 06:57N 01°16' E 103°49'0 0.0
2017-Apr-21 06:30N 01°16' E 103°49'4 7.6
2017-Apr-21 06:00N 01°12' E 103°48'4 1.6 220 / 121011.0 5.4 29.026.330.0
2017-Apr-21 03:33N 01°16' E 103°49'0 0.1
2017-Apr-21 03:30N 01°16' E 103°49'1 2.7
2017-Apr-21 03:00N 01°15' E 103°48'4 7.7
2017-Apr-21 02:30N 01°12' E 103°50'5 9.2
2017-Apr-21 02:00N 01°09' E 103°46'611.9
2017-Apr-21 01:30N 01°04' E 103°42'610.4
2017-Apr-21 00:59N 01°04' E 103°37'611.7
2017-Apr-21 00:27N 01°07' E 103°32'712.2
2017-Apr-20 23:54N 01°10' E 103°26'6814.3
2017-Apr-20 19:07N 01°46' E 102°27'214.6
2017-Apr-20 18:59N 01°47' E 102°26'2121.0
2017-Apr-20 18:00N 01°54' E 102°06'76 4.8 010 / 141012.0 5.4 28.024.028.0
2017-Apr-20 02:00N 02°48' E 101°12'9416.2 090 / 61012.0 5.4 27.025.730.0
2017-Apr-19 20:10N 01°51' E 102°27'215.5
2017-Apr-19 20:01N 01°50' E 102°30'815.4
2017-Apr-19 19:29N 01°47' E 102°37'715.8
2017-Apr-19 19:00N 01°43' E 102°43'815.8
2017-Apr-19 18:28N 01°39' E 102°51'5415.0
2017-Apr-19 14:51N 01°11' E 103°37'2 7.0
2017-Apr-19 14:30N 01°11' E 103°40'9 8.8
2017-Apr-19 13:30N 01°12' E 103°48'3 6.8
2017-Apr-19 13:00N 01°16' E 103°49'  
Track history (hours):
 
Tides and Currents Weather Stations Pressure Air Temp Water Temp Dewpoint Dewpoint Depression Visibility Wind Speed Wind Dir Waves Ship Positions

Norwegian Dream

Operator: Norwegian Cruise Line

Last reported at 2017-Apr-29 12:51 UTC. Time now 2017-Apr-29 13:29 UTC.
Position N 01°45' E 102°30'.

Type: Ship. MMSI: 308272000.

Date/timePositionNaut miles runAvg speedWind from/ knotsBaromVisibWave heightAir tempDewpointWater temp
2017-Apr-29 12:51N 01°45' E 102°30'12 1.1
2017-Apr-29 02:00N 01°48' E 102°18'1010.5 290 / 61012.0 5.4 26.024.630.0
2017-Apr-29 01:01N 01°51' E 102°28'2 5.1
2017-Apr-29 00:38N 01°50' E 102°29'1 5.4
2017-Apr-29 00:29N 01°50' E 102°30'3 5.5
2017-Apr-28 23:58N 01°48' E 102°33'5 6.2
2017-Apr-28 23:08N 01°46' E 102°37'1 6.4
2017-Apr-28 22:57N 01°46' E 102°38'3 7.2
2017-Apr-28 22:30N 01°44' E 102°41'4 7.4
2017-Apr-28 22:00N 01°42' E 102°45'4 7.3
2017-Apr-28 21:30N 01°41' E 102°48'56 7.4
2017-Apr-28 13:58N 01°12' E 103°35'511.1
2017-Apr-28 13:30N 01°11' E 103°40'510.0
2017-Apr-28 13:00N 01°08' E 103°45'510.8
2017-Apr-28 12:30N 01°12' E 103°48'3 6.4
2017-Apr-28 12:00N 01°16' E 103°48'1 0.4
2017-Apr-28 09:15N 01°16' E 103°49'0 0.0
2017-Apr-28 08:45N 01°16' E 103°49'0 0.0
2017-Apr-28 08:27N 01°16' E 103°49'0 0.0
2017-Apr-28 07:42N 01°16' E 103°49'0 0.0
2017-Apr-28 07:21N 01°16' E 103°49'0 0.0
2017-Apr-28 06:57N 01°16' E 103°49'0 0.0
2017-Apr-28 06:30N 01°16' E 103°49'0 0.0
2017-Apr-28 05:57N 01°16' E 103°49'0 0.0
2017-Apr-28 05:15N 01°16' E 103°49'0 0.0
2017-Apr-28 04:51N 01°16' E 103°49'0 0.0
2017-Apr-28 03:26N 01°16' E 103°49'1 1.9
2017-Apr-28 03:00N 01°16' E 103°48'4 7.1
2017-Apr-28 02:29N 01°12' E 103°49'612.6
2017-Apr-28 02:00N 01°06' E 103°48'3442.0 190 / 41012.0 5.4 28.026.730.0
2017-Apr-28 01:59N 01°08' E 103°46'511.0
2017-Apr-28 01:30N 01°05' E 103°42'5 8.3
2017-Apr-28 00:56N 01°04' E 103°37'7 7.5
2017-Apr-27 23:57N 01°07' E 103°31'4 7.4
2017-Apr-27 23:26N 01°09' E 103°28'4 7.7
2017-Apr-27 22:58N 01°11' E 103°24'14529.1
2017-Apr-27 18:00N 01°30' E 105°48'20355.0 220 / 101013.0 5.4 25.022.929.0
2017-Apr-27 14:18N 01°47' E 102°25'24 7.1
2017-Apr-27 10:51N 02°09' E 102°15'1 1.9
2017-Apr-27 10:30N 02°10' E 102°15'1 1.2
2017-Apr-27 09:49N 02°10' E 102°14'4 0.6
2017-Apr-27 02:00N 02°06' E 102°12'26 7.9 270 / 81012.010.8 27.025.730.0
2017-Apr-26 22:43N 01°50' E 102°33'314.3
2017-Apr-26 22:30N 01°49' E 102°35'814.5
2017-Apr-26 21:56N 01°44' E 102°42'5814.7
2017-Apr-26 18:00N 01°12' E 103°30'314.6 200 / 311012.0 5.4 25.022.228.0
2017-Apr-26 17:49N 01°12' E 103°33'412.8
2017-Apr-26 17:29N 01°11' E 103°37'612.3
2017-Apr-26 17:00N 01°09' E 103°42'612.5
2017-Apr-26 16:31N 01°11' E 103°48'4 8.7
2017-Apr-26 16:00N 01°15' E 103°48'2 0.3
2017-Apr-26 10:17N 01°16' E 103°49'0 0.7
2017-Apr-26 10:00N 01°16' E 103°49'3 6.5
2017-Apr-26 09:30N 01°15' E 103°46'612.8
2017-Apr-26 09:00N 01°13' E 103°40'510.7
2017-Apr-26 08:30N 01°12' E 103°35'815.0
2017-Apr-26 08:00N 01°06' E 103°30'7113.1 270 / 61012.0 5.4 28.026.730.0
2017-Apr-26 02:37N 01°46' E 102°32'112.5
2017-Apr-26 02:30N 01°47' E 102°30'812.6
2017-Apr-26 01:54N 01°50' E 102°24'13517.1
2017-Apr-25 18:00N 03°12' E 100°36'154 6.4 030 / 141012.0 5.4 28.024.028.0
2017-Apr-24 18:00N 05°42' E 100°00'27 2.8 060 / 81012.0 5.4 28.023.028.0
2017-Apr-24 08:11N 05°25' E 100°21'1 5.8
2017-Apr-24 07:57N 05°26' E 100°21'21 7.0
2017-Apr-24 05:00N 05°12' E 100°06'18016.3 090 / 81012.010.8 30.027.430.0
2017-Apr-23 18:00N 02°30' E 101°24'7916.1 010 / 121012.0 29.025.028.0
2017-Apr-23 13:07N 01°49' E 102°31'315.8
2017-Apr-23 12:56N 01°48' E 102°34'615.2
2017-Apr-23 12:31N 01°44' E 102°39'815.1
2017-Apr-23 12:00N 01°41' E 102°46'815.1
2017-Apr-23 11:30N 01°37' E 102°53'815.1
2017-Apr-23 11:00N 01°33' E 102°59'4215.9
2017-Apr-23 08:20N 01°12' E 103°35'512.9
2017-Apr-23 07:58N 01°13' E 103°40'613.2
2017-Apr-23 07:30N 01°16' E 103°45'4 7.7
2017-Apr-23 07:00N 01°16' E 103°49'0 0.1
2017-Apr-23 06:25N 01°16' E 103°49'0 0.0
2017-Apr-23 05:31N 01°16' E 103°49'0 0.0
2017-Apr-23 05:19N 01°16' E 103°49'0 0.0
2017-Apr-23 04:58N 01°16' E 103°49'0 0.0
2017-Apr-23 04:28N 01°16' E 103°49'0 0.0
2017-Apr-23 03:52N 01°16' E 103°49'0 0.0
2017-Apr-23 03:30N 01°16' E 103°49'0 0.0
2017-Apr-23 02:57N 01°16' E 103°49'0 0.0
2017-Apr-23 02:30N 01°16' E 103°49'0 0.0
2017-Apr-23 02:00N 01°16' E 103°49'0 0.0
2017-Apr-23 01:30N 01°16' E 103°49'2 4.1
2017-Apr-23 01:00N 01°15' E 103°47'4 8.9
2017-Apr-23 00:30N 01°11' E 103°50'5 9.3
2017-Apr-23 00:01N 01°08' E 103°46'510.2
2017-Apr-22 23:30N 01°05' E 103°43'5 9.1
2017-Apr-22 23:00N 01°03' E 103°38'4 7.5
2017-Apr-22 22:29N 01°05' E 103°35'4 7.4
2017-Apr-22 21:59N 01°07' E 103°32'3 7.3
2017-Apr-22 21:31N 01°08' E 103°29'5 7.0
2017-Apr-22 20:47N 01°11' E 103°25'4 6.9
2017-Apr-22 20:13N 01°13' E 103°21'16 7.2
2017-Apr-22 18:00N 01°18' E 103°06'13 8.3 010 / 101012.0 5.4 28.026.028.0
2017-Apr-22 16:28N 01°29' E 102°60'4 7.7
2017-Apr-22 16:00N 01°31' E 102°57'4 7.7
2017-Apr-22 15:27N 01°33' E 102°53'24 7.8
2017-Apr-22 12:20N 01°44' E 102°32'10 8.4
2017-Apr-22 11:09N 01°48' E 102°22'12 2.0
2017-Apr-22 05:00N 01°54' E 102°12'62 5.6 280 / 101014.0 5.4 28.026.729.0
2017-Apr-21 18:00N 01°24' E 103°06'33 8.1 240 / 141011.0 5.4 29.024.129.0
2017-Apr-21 13:55N 01°11' E 103°36'4 8.7
2017-Apr-21 13:30N 01°11' E 103°40'510.5
2017-Apr-21 13:01N 01°08' E 103°45'611.1
2017-Apr-21 12:30N 01°12' E 103°49'4 7.1
2017-Apr-21 12:01N 01°16' E 103°48'1 0.2
2017-Apr-21 07:45N 01°16' E 103°49'0 0.0
2017-Apr-21 07:27N 01°16' E 103°49'0 0.0
2017-Apr-21 06:57N 01°16' E 103°49'0 0.0
2017-Apr-21 06:30N 01°16' E 103°49'4 7.6
2017-Apr-21 06:00N 01°12' E 103°48'4 1.6 220 / 121011.0 5.4 29.026.330.0
2017-Apr-21 03:33N 01°16' E 103°49'0 0.1
2017-Apr-21 03:30N 01°16' E 103°49'1 2.7
2017-Apr-21 03:00N 01°15' E 103°48'4 7.7
2017-Apr-21 02:30N 01°12' E 103°50'5 9.2
2017-Apr-21 02:00N 01°09' E 103°46'611.9
2017-Apr-21 01:30N 01°04' E 103°42'610.4
2017-Apr-21 00:59N 01°04' E 103°37'611.7
2017-Apr-21 00:27N 01°07' E 103°32'712.2
2017-Apr-20 23:54N 01°10' E 103°26'6814.3
2017-Apr-20 19:07N 01°46' E 102°27'214.6
2017-Apr-20 18:59N 01°47' E 102°26'2121.0
2017-Apr-20 18:00N 01°54' E 102°06'76 4.8 010 / 141012.0 5.4 28.024.028.0
2017-Apr-20 02:00N 02°48' E 101°12'9416.2 090 / 61012.0 5.4 27.025.730.0
2017-Apr-19 20:10N 01°51' E 102°27'215.5
2017-Apr-19 20:01N 01°50' E 102°30'815.4
2017-Apr-19 19:29N 01°47' E 102°37'715.8
2017-Apr-19 19:00N 01°43' E 102°43'815.8
2017-Apr-19 18:28N 01°39' E 102°51'5415.0
2017-Apr-19 14:51N 01°11' E 103°37'2 7.0
2017-Apr-19 14:30N 01°11' E 103°40'9 8.8
2017-Apr-19 13:30N 01°12' E 103°48'3 6.8
2017-Apr-19 13:00N 01°16' E 103°49'  

Dump ship's entire track history